Time;durP1;ratioP1;P1;durP2;ratioP2;P2;SDS_P1;SDS_P2;PMS_P1;PMS_P2;Temp;Humidity;BMP_temperature;BMP_pressure;BME280_temperature;BME280_humidity;BME280_pressure;Samples;Min_cycle;Max_cycle;Signal;HPM_P1;HPM_P2
2021/03/02 00:00:23;;;;;;;70.22;30.40;;;6.50;99.90;;;;;;5098453;28;20227;-78
2021/03/02 00:02:49;;;;;;;72.27;32.07;;;6.50;99.90;;;;;;5116965;28;20244;-80
2021/03/02 00:05:15;;;;;;;74.27;32.63;;;6.50;99.90;;;;;;5117051;28;20188;-79
2021/03/02 00:07:41;;;;;;;71.57;32.07;;;6.50;99.90;;;;;;5094623;28;20205;-78
2021/03/02 00:10:12;;;;;;;69.50;30.93;;;6.50;99.90;;;;;;5076147;28;20208;-78
2021/03/02 00:12:40;;;;;;;69.97;30.87;;;6.40;99.90;;;;;;5076285;28;20198;-79
2021/03/02 00:15:08;;;;;;;68.57;31.83;;;6.40;99.90;;;;;;5082341;28;20520;-79
2021/03/02 00:17:36;;;;;;;65.03;30.73;;;6.30;99.90;;;;;;5094819;28;20158;-78
2021/03/02 00:20:17;;;;;;;61.17;29.63;;;6.30;99.90;;;;;;5093332;28;20614;-79
2021/03/02 00:22:59;;;;;;;64.27;30.20;;;6.20;99.90;;;;;;5095287;28;20169;-78
2021/03/02 00:25:27;;;;;;;68.70;29.77;;;6.20;99.90;;;;;;5096378;28;20207;-78
2021/03/02 00:27:56;;;;;;;71.57;30.93;;;6.30;99.90;;;;;;5094578;28;20165;-80
2021/03/02 00:30:22;;;;;;;67.07;30.73;;;6.30;99.90;;;;;;5095097;28;20184;-78
2021/03/02 00:32:48;;;;;;;65.40;29.83;;;6.30;99.90;;;;;;5096025;28;20197;-79
2021/03/02 00:35:15;;;;;;;73.33;32.33;;;6.40;99.90;;;;;;5078069;28;20165;-79
2021/03/02 00:37:41;;;;;;;75.90;31.47;;;6.40;99.90;;;;;;5078010;28;20559;-78
2021/03/02 00:40:07;;;;;;;68.60;31.42;;;6.50;99.90;;;;;;5092439;28;20166;-79
2021/03/02 00:42:33;;;;;;;73.17;30.87;;;6.60;99.90;;;;;;5094541;28;20616;-79
2021/03/02 00:44:59;;;;;;;73.53;31.40;;;6.50;99.90;;;;;;5095151;28;20158;-78
2021/03/02 00:47:24;;;;;;;63.15;29.77;;;6.50;99.90;;;;;;5095686;28;20177;-78
2021/03/02 00:49:50;;;;;;;65.57;29.93;;;6.30;99.90;;;;;;5095217;28;20177;-80
2021/03/02 00:52:16;;;;;;;66.83;29.47;;;6.10;99.90;;;;;;5095755;28;20668;-76
2021/03/02 00:54:42;;;;;;;64.28;31.17;;;6.00;99.90;;;;;;5095793;28;20174;-77
2021/03/02 00:57:08;;;;;;;71.03;31.00;;;6.10;99.90;;;;;;5094575;28;20161;-78
2021/03/02 00:59:34;;;;;;;64.60;29.50;;;6.20;99.90;;;;;;5095285;28;20268;-77
2021/03/02 01:02:00;;;;;;;64.33;29.63;;;6.20;99.90;;;;;;5093824;28;20170;-77
2021/03/02 01:04:25;;;;;;;67.40;29.60;;;6.20;99.90;;;;;;5093673;28;20569;-77
2021/03/02 01:06:51;;;;;;;70.27;30.20;;;6.30;99.90;;;;;;5093519;28;20185;-77
2021/03/02 01:09:17;;;;;;;67.80;29.97;;;6.30;99.90;;;;;;5092220;28;20170;-76
2021/03/02 01:11:42;;;;;;;69.30;30.50;;;6.30;99.90;;;;;;5082591;28;20549;-76
2021/03/02 01:14:08;;;;;;;64.70;29.03;;;6.30;99.90;;;;;;5093061;28;20201;-77
2021/03/02 01:16:34;;;;;;;62.83;28.87;;;6.30;99.90;;;;;;5082698;28;20170;-76
2021/03/02 01:18:59;;;;;;;65.97;29.30;;;6.30;99.90;;;;;;5093369;28;20170;-77
2021/03/02 01:21:25;;;;;;;70.80;30.37;;;6.30;99.90;;;;;;5083050;28;20664;-77
2021/03/02 01:23:51;;;;;;;69.03;29.50;;;6.30;99.90;;;;;;5092525;28;20170;-76
2021/03/02 01:26:16;;;;;;;67.83;29.90;;;6.30;99.90;;;;;;5083000;28;20162;-77
2021/03/02 01:28:42;;;;;;;62.93;28.40;;;6.30;99.90;;;;;;5092606;28;20251;-77
2021/03/02 01:31:08;;;;;;;63.87;28.10;;;6.30;99.90;;;;;;5090839;28;20162;-76
2021/03/02 01:33:34;;;;;;;69.93;29.67;;;6.30;99.90;;;;;;5083590;28;20221;-76
2021/03/02 01:35:59;;;;;;;60.50;27.07;;;6.30;99.90;;;;;;5095276;28;20172;-76
2021/03/02 01:38:25;;;;;;;66.17;29.30;;;6.30;99.90;;;;;;5076555;28;20183;-76
2021/03/02 01:40:51;;;;;;;69.87;28.97;;;6.20;99.90;;;;;;5094853;28;20170;-77
2021/03/02 01:43:16;;;;;;;65.67;29.17;;;6.20;99.90;;;;;;5094281;28;20228;-77
2021/03/02 01:45:42;;;;;;;69.87;28.57;;;6.20;99.90;;;;;;5094633;28;20161;-76
2021/03/02 01:48:08;;;;;;;64.03;27.80;;;6.20;99.90;;;;;;5094530;28;20216;-77
2021/03/02 01:50:34;;;;;;;65.20;27.53;;;6.20;99.90;;;;;;5094600;28;20166;-76
2021/03/02 01:53:00;;;;;;;59.10;27.63;;;6.10;99.90;;;;;;5075697;28;20676;-77
2021/03/02 01:55:26;;;;;;;64.90;28.23;;;6.10;99.90;;;;;;5091862;28;20170;-76
2021/03/02 01:57:52;;;;;;;69.77;27.73;;;6.00;99.90;;;;;;5093102;28;20256;-76
2021/03/02 02:00:38;;;;;;;66.00;29.87;;;6.00;99.90;;;;;;5076159;28;20255;-77
2021/03/02 02:03:27;;;;;;;55.47;25.70;;;6.00;99.90;;;;;;5092524;28;20174;-76
2021/03/02 02:06:16;;;;;;;58.03;25.50;;;5.90;99.90;;;;;;5094128;28;20282;-78
2021/03/02 02:09:05;;;;;;;64.83;26.53;;;5.80;99.90;;;;;;5094190;28;20167;-78
2021/03/02 02:11:37;;;;;;;62.90;26.80;;;5.70;99.90;;;;;;5076076;28;20162;-77
2021/03/02 02:14:15;;;;;;;68.90;28.47;;;5.80;99.90;;;;;;5093185;28;20208;-77
2021/03/02 02:16:45;;;;;;;66.50;27.37;;;5.80;99.90;;;;;;5094346;28;20212;-76
2021/03/02 02:19:25;;;;;;;62.17;26.67;;;5.70;99.90;;;;;;5075681;28;20185;-76
2021/03/02 02:22:07;;;;;;;57.33;25.93;;;5.70;99.90;;;;;;5093940;28;20260;-76
2021/03/02 02:24:47;;;;;;;57.30;25.47;;;5.60;99.90;;;;;;5093764;28;20491;-76
2021/03/02 02:27:13;;;;;;;57.77;26.00;;;5.60;99.90;;;;;;5093608;28;20638;-76
2021/03/02 02:29:39;;;;;;;60.70;26.43;;;5.60;99.90;;;;;;5093563;28;20181;-76
2021/03/02 02:32:07;;;;;;;66.47;27.37;;;5.60;99.90;;;;;;5048907;28;20213;-76
2021/03/02 02:34:35;;;;;;;55.53;25.53;;;5.60;99.90;;;;;;5075651;28;20165;-77
2021/03/02 02:37:03;;;;;;;63.20;28.13;;;5.60;99.90;;;;;;5093733;28;20602;-76
2021/03/02 02:39:32;;;;;;;58.03;26.77;;;5.50;99.90;;;;;;5093558;28;20162;-76
2021/03/02 02:41:59;;;;;;;60.40;26.87;;;5.50;99.90;;;;;;5091950;28;20170;-77
2021/03/02 02:44:26;;;;;;;61.17;26.80;;;5.40;99.90;;;;;;5075769;28;20174;-76
2021/03/02 02:46:53;;;;;;;62.63;26.13;;;5.40;99.90;;;;;;5093426;28;20265;-76
2021/03/02 02:49:20;;;;;;;54.13;25.73;;;5.50;99.90;;;;;;5081800;28;20166;-77
2021/03/02 02:51:46;;;;;;;58.57;26.00;;;5.50;99.90;;;;;;5092152;28;20219;-76
2021/03/02 02:54:12;;;;;;;57.17;26.53;;;5.50;99.90;;;;;;5093567;28;20560;-76
2021/03/02 02:56:42;;;;;;;69.17;26.83;;;5.40;99.90;;;;;;5093192;28;20193;-76
2021/03/02 02:59:39;;;;;;;66.33;26.00;;;5.40;99.90;;;;;;5093492;28;20162;-76
2021/03/02 03:02:13;;;;;;;67.03;25.77;;;5.40;99.90;;;;;;5079458;28;20194;-76
2021/03/02 03:05:07;;;;;;;61.17;26.53;;;5.40;99.90;;;;;;5093513;28;20162;-77
2021/03/02 03:07:37;;;;;;;58.13;24.77;;;5.40;99.90;;;;;;5085139;28;20208;-76
2021/03/02 03:10:06;;;;;;;55.93;24.77;;;5.30;99.90;;;;;;5093079;28;20614;-76
2021/03/02 03:12:33;;;;;;;64.97;27.27;;;5.30;99.90;;;;;;5094598;28;20656;-77
2021/03/02 03:15:03;;;;;;;59.17;25.80;;;5.30;99.90;;;;;;5113556;28;20157;-76
2021/03/02 03:17:33;;;;;;;56.27;25.37;;;5.30;99.90;;;;;;5111391;28;20181;-76
2021/03/02 03:20:00;;;;;;;64.63;26.90;;;5.30;99.90;;;;;;5075261;28;20620;-76
2021/03/02 03:22:28;;;;;;;61.93;26.50;;;5.40;99.90;;;;;;5088142;28;20272;-76
2021/03/02 03:24:55;;;;;;;55.53;24.93;;;5.30;99.90;;;;;;5090994;28;20162;-76
2021/03/02 03:27:21;;;;;;;56.40;25.03;;;5.20;99.90;;;;;;5093178;28;20166;-77
2021/03/02 03:29:48;;;;;;;50.50;23.30;;;5.20;99.90;;;;;;5092810;28;20188;-77
2021/03/02 03:32:15;;;;;;;62.43;24.07;;;5.20;99.90;;;;;;5093532;28;20205;-76
2021/03/02 03:34:43;;;;;;;53.33;25.27;;;5.20;99.90;;;;;;5079167;28;20169;-76
2021/03/02 03:37:09;;;;;;;53.83;24.37;;;5.20;99.90;;;;;;5097335;28;20517;-77
2021/03/02 03:39:35;;;;;;;62.90;24.57;;;5.20;99.90;;;;;;5097126;28;20168;-76
2021/03/02 03:42:01;;;;;;;54.07;23.87;;;5.20;99.90;;;;;;5096834;28;20274;-76
2021/03/02 03:44:26;;;;;;;54.27;22.17;;;5.20;99.90;;;;;;5096837;28;20207;-76
2021/03/02 03:46:52;;;;;;;49.90;23.57;;;5.10;99.90;;;;;;5095723;28;20170;-76
2021/03/02 03:49:18;;;;;;;52.20;23.80;;;5.10;99.90;;;;;;5097379;28;20697;-76
2021/03/02 03:51:47;;;;;;;45.87;22.57;;;5.00;99.90;;;;;;5093922;28;20296;-76
2021/03/02 03:54:15;;;;;;;59.20;24.10;;;4.90;99.90;;;;;;5095638;28;20166;-76
2021/03/02 03:56:43;;;;;;;54.73;23.67;;;4.80;99.90;;;;;;5095402;28;20185;-76
2021/03/02 03:59:11;;;;;;;54.10;23.73;;;4.80;99.90;;;;;;5096397;28;20185;-76
2021/03/02 04:01:39;;;;;;;58.70;23.97;;;4.80;99.90;;;;;;5096272;28;20201;-76
2021/03/02 04:04:05;;;;;;;53.43;22.93;;;4.80;99.90;;;;;;5096410;28;20224;-76
2021/03/02 04:06:33;;;;;;;56.63;23.80;;;4.80;99.90;;;;;;5095431;28;20510;-76
2021/03/02 04:09:00;;;;;;;59.17;23.83;;;4.80;99.90;;;;;;5096533;28;20168;-77
2021/03/02 04:11:26;;;;;;;56.83;23.40;;;4.80;99.90;;;;;;5093512;28;20170;-76
2021/03/02 04:13:54;;;;;;;54.03;24.93;;;4.70;99.90;;;;;;5095150;28;20597;-76
2021/03/02 04:16:20;;;;;;;54.43;23.90;;;4.80;99.90;;;;;;5096650;28;20166;-76
2021/03/02 04:18:46;;;;;;;61.17;25.60;;;4.70;99.90;;;;;;5095459;28;20166;-77
2021/03/02 04:21:11;;;;;;;51.33;24.17;;;4.80;99.90;;;;;;5093334;28;20181;-77
2021/03/02 04:23:37;;;;;;;56.20;24.77;;;4.80;99.90;;;;;;5078092;28;20162;-76
2021/03/02 04:26:03;;;;;;;51.73;22.47;;;4.80;99.90;;;;;;5096337;28;20248;-76
2021/03/02 04:28:29;;;;;;;55.97;24.43;;;4.80;99.90;;;;;;5077820;28;20186;-76
2021/03/02 04:30:55;;;;;;;56.10;24.03;;;4.70;99.90;;;;;;5095638;28;20166;-76
2021/03/02 04:33:20;;;;;;;56.70;24.50;;;4.70;99.90;;;;;;5094724;28;20288;-76
2021/03/02 04:35:46;;;;;;;54.47;25.27;;;4.60;99.90;;;;;;5096138;28;20185;-77
2021/03/02 04:38:12;;;;;;;60.83;25.13;;;4.60;99.90;;;;;;5095898;28;20181;-77
2021/03/02 04:40:37;;;;;;;54.70;24.33;;;4.60;99.90;;;;;;5095432;28;20162;-77
2021/03/02 04:43:03;;;;;;;59.37;24.97;;;4.60;99.90;;;;;;5095465;28;20215;-76
2021/03/02 04:45:29;;;;;;;60.27;25.70;;;4.60;99.90;;;;;;5095050;28;20641;-76
2021/03/02 04:47:54;;;;;;;56.50;24.33;;;4.60;99.90;;;;;;5077426;28;20186;-77
2021/03/02 04:50:20;;;;;;;61.77;25.97;;;4.60;99.90;;;;;;5077558;28;20197;-77
2021/03/02 04:52:45;;;;;;;58.53;25.00;;;4.60;99.90;;;;;;5077473;28;20198;-76
2021/03/02 04:55:12;;;;;;;59.00;23.10;;;4.50;99.90;;;;;;5095805;28;20170;-77
2021/03/02 04:57:38;;;;;;;51.23;22.17;;;4.60;99.90;;;;;;5077647;28;20193;-76
2021/03/02 05:00:08;;;;;;;50.73;22.50;;;4.60;99.90;;;;;;5083525;28;20253;-76
2021/03/02 05:02:33;;;;;;;55.23;24.10;;;4.60;99.90;;;;;;5095423;28;20640;-76
2021/03/02 05:04:59;;;;;;;53.77;23.37;;;4.60;99.90;;;;;;5077471;28;20163;-76
2021/03/02 05:07:25;;;;;;;51.03;23.00;;;4.50;99.90;;;;;;5077505;28;20166;-76
2021/03/02 05:09:50;;;;;;;50.90;23.63;;;4.50;99.90;;;;;;5095002;28;20518;-76
2021/03/02 05:12:16;;;;;;;51.37;22.70;;;4.50;99.90;;;;;;5093579;28;20209;-76
2021/03/02 05:14:41;;;;;;;48.87;23.07;;;4.50;99.90;;;;;;5095558;28;20166;-76
2021/03/02 05:17:07;;;;;;;59.40;23.73;;;4.50;99.90;;;;;;5095524;28;20173;-76
2021/03/02 05:19:33;;;;;;;57.47;22.30;;;4.50;99.90;;;;;;5095118;28;20173;-76
2021/03/02 05:21:58;;;;;;;43.40;20.87;;;4.50;99.90;;;;;;5093959;28;20272;-76
2021/03/02 05:24:26;;;;;;;52.13;22.13;;;4.50;99.90;;;;;;5093881;28;20170;-77
2021/03/02 05:26:52;;;;;;;50.47;21.47;;;4.50;99.90;;;;;;5095345;28;20177;-76
2021/03/02 05:29:18;;;;;;;49.30;21.97;;;4.50;99.90;;;;;;5094813;28;20186;-76
2021/03/02 05:31:44;;;;;;;48.40;23.13;;;4.50;99.90;;;;;;5094738;28;20173;-76
2021/03/02 05:34:10;;;;;;;45.93;21.73;;;4.50;99.90;;;;;;5076807;28;20252;-76
2021/03/02 05:36:35;;;;;;;57.43;21.77;;;4.50;99.90;;;;;;5094845;28;20560;-76
2021/03/02 05:39:01;;;;;;;54.23;22.13;;;4.50;99.90;;;;;;5077533;28;20518;-76
2021/03/02 05:41:27;;;;;;;46.40;21.27;;;4.50;99.90;;;;;;5076698;28;20577;-76
2021/03/02 05:43:53;;;;;;;49.30;22.10;;;4.50;99.90;;;;;;5094809;28;20165;-76
2021/03/02 05:46:22;;;;;;;56.67;22.50;;;4.50;99.90;;;;;;5076646;28;20256;-76
2021/03/02 05:48:48;;;;;;;55.37;22.13;;;4.50;99.90;;;;;;5094668;28;20165;-76
2021/03/02 05:51:14;;;;;;;55.60;21.87;;;4.50;99.90;;;;;;5094371;28;20170;-77
2021/03/02 05:53:40;;;;;;;57.43;23.53;;;4.50;99.90;;;;;;5076251;28;20210;-76
2021/03/02 05:56:07;;;;;;;52.07;21.43;;;4.50;99.90;;;;;;5094585;28;20169;-76
2021/03/02 05:58:34;;;;;;;56.00;21.87;;;4.50;99.90;;;;;;5089701;28;20174;-76
2021/03/02 06:00:59;;;;;;;47.17;19.37;;;4.40;99.90;;;;;;5088987;28;20207;-77
2021/03/02 06:03:25;;;;;;;50.33;21.60;;;4.40;99.90;;;;;;5094332;28;20194;-77
2021/03/02 06:05:51;;;;;;;53.53;22.70;;;4.30;99.90;;;;;;5094349;28;20193;-77
2021/03/02 06:08:17;;;;;;;35.23;18.00;;;4.40;99.90;;;;;;5076015;28;20678;-76
2021/03/02 06:10:43;;;;;;;34.63;16.50;;;4.40;99.90;;;;;;5070489;28;20261;-77
2021/03/02 06:13:08;;;;;;;45.20;19.17;;;4.30;99.90;;;;;;5093108;28;20213;-76
2021/03/02 06:15:34;;;;;;;43.33;19.63;;;4.30;99.90;;;;;;5094188;28;20276;-76
2021/03/02 06:18:16;;;;;;;51.07;21.47;;;4.30;99.90;;;;;;5092902;28;20628;-76
2021/03/02 06:20:42;;;;;;;41.17;19.20;;;4.40;99.90;;;;;;5091150;28;20161;-76
2021/03/02 06:23:29;;;;;;;48.77;20.37;;;4.40;99.90;;;;;;5094059;28;20170;-76
2021/03/02 06:26:24;;;;;;;36.97;19.20;;;4.50;99.90;;;;;;5092670;28;20188;-76
2021/03/02 06:28:50;;;;;;;51.07;19.70;;;4.50;99.90;;;;;;5093952;28;20697;-76
2021/03/02 06:31:41;;;;;;;37.60;17.67;;;4.50;99.90;;;;;;5070292;28;20172;-76
2021/03/02 06:34:18;;;;;;;52.77;19.40;;;4.50;99.90;;;;;;5086730;28;20177;-76
2021/03/02 06:36:53;;;;;;;43.93;19.73;;;4.60;99.90;;;;;;5093768;28;20186;-76
2021/03/02 06:39:42;;;;;;;38.63;19.33;;;4.60;99.90;;;;;;5092477;28;20181;-76
2021/03/02 06:42:16;;;;;;;44.70;20.47;;;4.60;99.90;;;;;;5091019;28;20613;-76
2021/03/02 06:44:52;;;;;;;42.47;18.67;;;4.60;99.90;;;;;;5093774;28;20227;-77
2021/03/02 06:47:36;;;;;;;44.17;20.47;;;4.70;99.90;;;;;;5092475;28;20516;-76
2021/03/02 06:50:05;;;;;;;42.87;21.03;;;4.70;99.90;;;;;;5091013;28;20161;-76
2021/03/02 06:52:42;;;;;;;44.07;20.37;;;4.80;99.90;;;;;;5090507;28;20594;-77
2021/03/02 06:55:17;;;;;;;45.47;20.17;;;4.90;99.90;;;;;;5089794;28;20327;-76
2021/03/02 06:57:47;;;;;;;44.57;19.97;;;5.00;99.90;;;;;;5091990;28;20551;-76
2021/03/02 07:00:15;;;;;;;44.23;20.33;;;5.10;99.90;;;;;;5092426;28;20173;-77
2021/03/02 07:02:43;;;;;;;44.63;19.57;;;5.20;99.90;;;;;;5092484;28;20695;-77
2021/03/02 07:05:13;;;;;;;40.27;19.93;;;5.30;99.90;;;;;;5093915;28;20704;-77
2021/03/02 07:07:55;;;;;;;39.43;19.40;;;5.30;99.90;;;;;;5092582;28;20263;-76
2021/03/02 07:10:22;;;;;;;38.33;19.07;;;5.40;99.90;;;;;;5093454;28;20158;-77
2021/03/02 07:12:51;;;;;;;34.17;18.27;;;5.50;99.90;;;;;;5092711;28;20186;-77
2021/03/02 07:15:18;;;;;;;42.17;19.27;;;5.70;99.90;;;;;;5093624;28;20264;-77
2021/03/02 07:17:45;;;;;;;40.03;18.37;;;5.80;99.90;;;;;;5093495;28;20161;-77
2021/03/02 07:20:13;;;;;;;35.53;18.23;;;5.90;99.90;;;;;;5093476;28;20193;-76
2021/03/02 07:22:40;;;;;;;35.97;18.60;;;6.10;99.90;;;;;;5092840;28;20519;-76
2021/03/02 07:25:09;;;;;;;36.70;18.10;;;6.70;99.90;;;;;;5093242;28;20162;-77
2021/03/02 07:27:42;;;;;;;40.72;18.30;;;8.50;99.90;;;;;;5074665;28;20261;-77
2021/03/02 07:30:10;;;;;;;29.67;16.98;;;10.90;99.90;;;;;;5058378;28;20182;-77
2021/03/02 07:32:36;;;;;;;23.88;15.40;;;13.10;99.90;;;;;;5090764;28;20189;-77
2021/03/02 07:35:02;;;;;;;28.95;14.73;;;15.20;99.90;;;;;;5091877;28;20691;-78
2021/03/02 07:37:28;;;;;;;30.45;14.77;;;17.00;99.90;;;;;;5092265;28;20163;-77
2021/03/02 07:40:02;;;;;;;21.65;13.68;;;18.50;99.90;;;;;;5093165;28;20550;-78
2021/03/02 07:42:28;;;;;;;25.08;14.02;;;19.80;99.90;;;;;;5091602;28;20207;-78
2021/03/02 07:45:16;;;;;;;30.83;13.00;;;21.00;99.90;;;;;;5091850;28;20170;-78
2021/03/02 07:47:56;;;;;;;24.30;14.35;;;22.10;99.90;;;;;;5050623;28;20595;-77
2021/03/02 07:50:30;;;;;;;19.17;14.30;;;23.10;99.90;;;;;;5035091;28;20171;-78
2021/03/02 07:53:21;;;;;;;27.10;15.70;;;23.90;98.20;;;;;;5015034;28;20207;-75
2021/03/02 07:55:47;;;;;;;18.70;14.13;;;25.00;95.10;;;;;;5030754;28;20168;-75
2021/03/02 07:58:14;;;;;;;23.83;16.42;;;25.60;93.30;;;;;;5014015;28;20283;-74
2021/03/02 08:00:40;;;;;;;19.42;15.65;;;26.40;91.80;;;;;;5020522;28;20218;-75
2021/03/02 08:03:20;;;;;;;24.65;16.23;;;27.10;90.30;;;;;;5032092;28;20186;-76
2021/03/02 08:05:47;;;;;;;22.70;16.30;;;27.80;87.50;;;;;;5050430;28;20161;-74
2021/03/02 08:08:24;;;;;;;24.13;16.45;;;28.40;84.80;;;;;;5049975;28;20233;-79
2021/03/02 08:10:54;;;;;;;20.70;16.35;;;28.90;83.80;;;;;;5033330;28;20175;-78
2021/03/02 08:13:32;;;;;;;22.38;15.18;;;29.30;82.70;;;;;;5048518;28;20207;-75
2021/03/02 08:15:57;;;;;;;22.08;13.27;;;29.00;79.70;;;;;;5033770;28;20497;-75
2021/03/02 08:18:37;;;;;;;15.90;13.52;;;29.40;80.40;;;;;;5067112;28;20180;-75
2021/03/02 08:21:10;;;;;;;30.05;14.30;;;30.10;79.00;;;;;;5096875;28;20467;-74
2021/03/02 08:23:58;;;;;;;21.30;13.50;;;31.10;76.50;;;;;;5095589;28;20170;-75
2021/03/02 08:26:24;;;;;;;24.70;13.45;;;32.00;72.20;;;;;;5096341;28;20162;-75
2021/03/02 08:29:10;;;;;;;17.73;13.30;;;32.50;65.00;;;;;;5077754;28;20279;-75
2021/03/02 08:31:38;;;;;;;17.40;13.30;;;31.50;64.80;;;;;;5095927;28;20162;-75
2021/03/02 08:34:06;;;;;;;21.45;12.50;;;31.40;64.00;;;;;;5095727;28;20181;-75
2021/03/02 08:36:33;;;;;;;20.13;12.93;;;31.60;64.50;;;;;;5096130;28;20162;-75
2021/03/02 08:38:59;;;;;;;13.40;11.32;;;32.30;62.60;;;;;;5095000;28;20170;-76
2021/03/02 08:41:33;;;;;;;19.13;11.93;;;32.80;62.90;;;;;;5096098;28;20629;-75
2021/03/02 08:44:00;;;;;;;16.90;11.23;;;33.40;61.40;;;;;;5072234;28;20228;-76
2021/03/02 08:46:28;;;;;;;14.10;11.38;;;34.20;60.80;;;;;;5079447;28;20567;-75
2021/03/02 08:48:54;;;;;;;22.38;11.32;;;34.80;57.70;;;;;;5082355;28;20219;-75
2021/03/02 08:51:21;;;;;;;11.73;10.63;;;34.80;58.00;;;;;;5095808;28;20166;-77
2021/03/02 08:53:49;;;;;;;13.10;10.70;;;35.20;56.90;;;;;;5091099;28;20198;-75
2021/03/02 08:56:24;;;;;;;12.93;9.65;;;35.40;55.90;;;;;;5085560;28;20266;-75
2021/03/02 08:58:54;;;;;;;10.18;9.10;;;35.60;56.10;;;;;;5086597;28;20289;-75
2021/03/02 09:01:23;;;;;;;9.50;8.63;;;35.20;53.90;;;;;;5089942;28;20169;-76
2021/03/02 09:03:50;;;;;;;9.90;8.90;;;34.80;53.60;;;;;;5077549;28;20219;-75
2021/03/02 09:06:23;;;;;;;9.95;9.15;;;34.60;54.60;;;;;;5072199;28;20194;-76
2021/03/02 09:08:53;;;;;;;15.38;9.38;;;35.00;53.40;;;;;;5084688;28;20169;-76
2021/03/02 09:11:38;;;;;;;10.57;9.48;;;34.30;53.50;;;;;;5075221;28;20161;-76
2021/03/02 09:14:23;;;;;;;10.88;9.57;;;34.10;54.00;;;;;;5085774;28;20180;-76
2021/03/02 09:16:52;;;;;;;14.13;9.27;;;33.90;53.10;;;;;;5087983;28;20170;-76
2021/03/02 09:19:26;;;;;;;11.07;9.77;;;34.10;53.70;;;;;;5092409;28;20181;-76
2021/03/02 09:21:57;;;;;;;16.33;9.98;;;34.90;53.00;;;;;;5094780;28;20173;-77
2021/03/02 09:24:29;;;;;;;10.27;8.48;;;34.90;52.40;;;;;;5094101;28;20158;-76
2021/03/02 09:27:05;;;;;;;11.52;9.95;;;34.90;53.30;;;;;;5094095;28;20256;-76
2021/03/02 09:29:51;;;;;;;11.45;9.15;;;34.90;51.80;;;;;;5094098;28;20225;-76
2021/03/02 09:32:40;;;;;;;10.05;9.10;;;34.80;52.70;;;;;;5094870;28;20201;-75
2021/03/02 09:35:10;;;;;;;14.40;10.48;;;34.80;53.20;;;;;;5085490;28;20163;-76
2021/03/02 09:37:37;;;;;;;12.32;10.13;;;34.80;53.80;;;;;;5065117;28;20526;-76
2021/03/02 09:40:07;;;;;;;15.80;11.00;;;35.10;52.30;;;;;;5081623;28;20524;-76
2021/03/02 09:42:35;;;;;;;12.15;10.95;;;34.90;51.40;;;;;;5087376;28;20671;-77
2021/03/02 09:45:04;;;;;;;10.68;9.77;;;34.60;52.60;;;;;;5086907;28;20170;-76
2021/03/02 09:47:32;;;;;;;13.23;11.02;;;34.60;52.90;;;;;;5055712;28;20166;-76
2021/03/02 09:50:02;;;;;;;19.92;10.82;;;34.90;52.30;;;;;;5079823;28;20181;-76
2021/03/02 09:52:30;;;;;;;19.63;11.68;;;35.50;51.80;;;;;;5094119;28;20232;-76
2021/03/02 09:55:08;;;;;;;16.55;10.73;;;35.60;52.00;;;;;;5088096;28;20189;-76
2021/03/02 09:57:33;;;;;;;13.30;11.57;;;36.50;51.20;;;;;;5079623;28;20256;-75
2021/03/02 10:00:08;;;;;;;17.92;10.75;;;37.40;50.10;;;;;;5083363;28;20249;-76
2021/03/02 10:02:47;;;;;;;14.40;12.77;;;37.10;50.50;;;;;;5076994;28;20209;-75
2021/03/02 10:05:13;;;;;;;22.50;12.25;;;37.40;49.50;;;;;;5057249;28;20181;-76
2021/03/02 10:07:43;;;;;;;13.52;10.88;;;38.10;48.80;;;;;;5073306;28;20174;-76
2021/03/02 10:10:09;;;;;;;16.65;11.98;;;38.30;49.50;;;;;;5092667;28;20170;-75
2021/03/02 10:12:34;;;;;;;19.58;12.10;;;38.50;48.60;;;;;;5084244;28;20810;-75
2021/03/02 10:15:00;;;;;;;19.08;13.20;;;38.70;48.60;;;;;;5075006;28;20231;-78
2021/03/02 10:17:35;;;;;;;16.48;12.73;;;38.80;48.40;;;;;;5085762;28;20614;-77
2021/03/02 10:20:07;;;;;;;21.52;13.30;;;38.80;48.40;;;;;;5081937;28;20166;-77
2021/03/02 10:22:33;;;;;;;16.45;12.63;;;39.10;47.30;;;;;;5088042;28;20204;-78
2021/03/02 10:25:01;;;;;;;18.75;13.60;;;38.60;47.60;;;;;;5092576;28;20197;-79
2021/03/02 10:27:27;;;;;;;19.50;13.77;;;37.50;47.30;;;;;;5088353;28;20193;-77
2021/03/02 10:29:52;;;;;;;17.35;11.30;;;37.20;48.00;;;;;;5075376;28;20632;-77
2021/03/02 10:32:18;;;;;;;12.05;10.95;;;37.50;48.80;;;;;;5068497;28;20254;-76
2021/03/02 10:34:45;;;;;;;24.83;12.77;;;37.90;49.20;;;;;;5080292;28;20177;-76
2021/03/02 10:37:11;;;;;;;14.25;10.60;;;38.50;48.50;;;;;;5086849;28;20675;-76
2021/03/02 10:39:38;;;;;;;15.98;11.27;;;38.40;48.20;;;;;;5079497;28;20173;-77
2021/03/02 10:42:05;;;;;;;19.83;11.68;;;39.20;48.10;;;;;;5068804;28;20243;-77
2021/03/02 10:44:31;;;;;;;19.58;12.05;;;39.60;48.00;;;;;;5092718;28;20158;-76
2021/03/02 10:46:57;;;;;;;17.92;11.25;;;39.50;47.40;;;;;;5079389;28;20170;-76
2021/03/02 10:49:23;;;;;;;22.38;12.70;;;38.90;48.30;;;;;;5082894;28;20200;-77
2021/03/02 10:51:49;;;;;;;24.95;14.02;;;39.20;47.90;;;;;;5082408;28;20173;-76
2021/03/02 10:54:15;;;;;;;19.60;12.95;;;39.10;47.00;;;;;;5065680;28;20577;-77
2021/03/02 10:56:41;;;;;;;21.92;12.52;;;38.70;47.90;;;;;;5073030;28;20166;-77
2021/03/02 10:59:07;;;;;;;17.90;12.43;;;38.80;47.70;;;;;;5078237;28;20178;-77
2021/03/02 11:01:33;;;;;;;20.92;12.63;;;38.90;48.40;;;;;;5087406;28;20525;-76
2021/03/02 11:03:58;;;;;;;13.20;11.73;;;39.40;48.10;;;;;;5090781;28;20167;-78
2021/03/02 11:06:25;;;;;;;19.48;11.95;;;39.50;48.40;;;;;;5091819;28;20256;-77
2021/03/02 11:08:56;;;;;;;17.10;12.05;;;39.40;48.00;;;;;;5065778;28;20173;-76
2021/03/02 11:11:23;;;;;;;20.05;13.82;;;39.80;47.80;;;;;;5092427;28;20165;-76
2021/03/02 11:13:49;;;;;;;21.73;12.93;;;40.10;47.00;;;;;;5082883;28;20807;-77
2021/03/02 11:16:16;;;;;;;19.88;13.98;;;39.40;46.80;;;;;;5090006;28;20260;-76
2021/03/02 11:18:42;;;;;;;16.52;12.82;;;39.20;46.50;;;;;;5090485;28;20645;-76
2021/03/02 11:21:09;;;;;;;18.52;13.63;;;38.80;47.50;;;;;;5092840;28;20165;-74
2021/03/02 11:23:35;;;;;;;18.95;13.38;;;38.00;46.80;;;;;;5086044;28;20170;-75
2021/03/02 11:26:01;;;;;;;22.58;14.38;;;38.40;46.90;;;;;;5084340;28;20189;-75
2021/03/02 11:28:26;;;;;;;23.50;13.13;;;38.20;46.90;;;;;;5077130;28;20270;-77
2021/03/02 11:30:52;;;;;;;17.42;11.82;;;37.50;49.10;;;;;;5075069;28;20181;-75
2021/03/02 11:33:18;;;;;;;25.20;12.77;;;37.90;47.80;;;;;;5071915;28;20213;-77
2021/03/02 11:35:44;;;;;;;18.52;12.50;;;37.20;48.20;;;;;;5091552;28;20510;-75
2021/03/02 11:38:12;;;;;;;20.42;12.43;;;36.90;48.70;;;;;;5074769;28;20256;-76
2021/03/02 11:40:38;;;;;;;22.23;12.52;;;36.70;49.10;;;;;;5079703;28;20494;-78
2021/03/02 11:43:04;;;;;;;22.95;13.20;;;36.90;49.00;;;;;;5054332;28;20186;-75
2021/03/02 11:45:34;;;;;;;20.65;13.45;;;37.30;48.50;;;;;;5090914;28;20219;-76
2021/03/02 11:48:00;;;;;;;22.70;12.88;;;38.00;47.70;;;;;;5085513;28;20166;-77
2021/03/02 11:50:25;;;;;;;17.45;13.52;;;37.90;47.70;;;;;;5087369;28;20181;-75
2021/03/02 11:52:51;;;;;;;17.52;12.70;;;37.70;47.50;;;;;;5059732;28;20599;-76
2021/03/02 11:55:19;;;;;;;23.67;12.68;;;37.10;49.30;;;;;;5092043;28;20193;-75
2021/03/02 11:57:45;;;;;;;16.02;12.60;;;36.70;49.40;;;;;;5095769;28;20252;-76
2021/03/02 12:00:16;;;;;;;15.13;12.35;;;36.50;50.00;;;;;;5095766;28;20177;-76
2021/03/02 12:02:43;;;;;;;17.77;12.30;;;35.00;50.00;;;;;;5089915;28;20182;-76
2021/03/02 12:05:10;;;;;;;18.13;12.55;;;35.90;50.20;;;;;;5087810;28;20205;-77
2021/03/02 12:07:36;;;;;;;19.67;12.65;;;36.20;50.00;;;;;;5086855;28;20661;-76
2021/03/02 12:10:04;;;;;;;30.35;13.25;;;35.50;50.20;;;;;;5083315;28;20249;-74
2021/03/02 12:12:29;;;;;;;24.48;12.23;;;36.00;49.80;;;;;;5088597;28;20233;-78
2021/03/02 12:14:55;;;;;;;20.50;12.93;;;36.00;49.40;;;;;;5094756;28;20567;-74
2021/03/02 12:17:21;;;;;;;18.05;11.75;;;36.10;49.70;;;;;;5095172;28;20197;-77
2021/03/02 12:19:46;;;;;;;19.55;12.07;;;36.10;49.80;;;;;;5095525;28;20558;-74
2021/03/02 12:22:12;;;;;;;21.10;12.18;;;35.90;49.00;;;;;;5061416;28;20538;-75
2021/03/02 12:24:37;;;;;;;26.80;11.77;;;35.30;49.90;;;;;;5088067;28;20205;-74
2021/03/02 12:27:03;;;;;;;23.02;13.13;;;35.30;51.70;;;;;;5079030;28;20507;-75
2021/03/02 12:29:29;;;;;;;23.80;13.70;;;35.40;50.50;;;;;;5091270;28;20192;-75
2021/03/02 12:31:54;;;;;;;20.27;12.18;;;33.40;52.00;;;;;;5087877;28;20189;-75
2021/03/02 12:34:20;;;;;;;22.70;12.30;;;34.00;51.10;;;;;;5084517;28;20644;-74
2021/03/02 12:36:46;;;;;;;19.23;12.38;;;34.20;51.60;;;;;;5094715;28;20178;-77
2021/03/02 12:39:11;;;;;;;21.73;11.57;;;34.40;51.90;;;;;;5093371;28;20265;-75
2021/03/02 12:41:37;;;;;;;18.35;12.35;;;34.10;51.50;;;;;;5068291;28;20587;-75